createdAt,value
2023-02-14T00:01:11.257Z,21.70
2023-02-14T00:03:38.910Z,22.55
2023-02-14T00:06:13.370Z,23.45
2023-02-14T00:08:41.318Z,21.83
2023-02-14T00:11:11.457Z,23.75
2023-02-14T00:13:38.861Z,24.05
2023-02-14T00:16:06.059Z,26.98
2023-02-14T00:18:51.796Z,24.23
2023-02-14T00:21:18.791Z,20.65
2023-02-14T00:23:46.019Z,19.80
2023-02-14T00:26:16.141Z,22.90
2023-02-14T00:28:43.433Z,23.25
2023-02-14T00:31:10.815Z,24.20
2023-02-14T00:33:38.128Z,20.85
2023-02-14T00:36:10.137Z,22.60
2023-02-14T00:38:37.252Z,21.65
2023-02-14T00:41:05.257Z,20.95
2023-02-14T00:43:32.245Z,21.77
2023-02-14T00:45:59.372Z,22.48
2023-02-14T00:48:26.540Z,20.92
2023-02-14T00:50:53.493Z,19.73
2023-02-14T00:53:20.712Z,17.83
2023-02-14T00:55:49.629Z,15.85
2023-02-14T00:58:16.573Z,16.25
2023-02-14T01:00:43.528Z,16.63
2023-02-14T01:03:10.565Z,19.77
2023-02-14T01:05:37.762Z,21.20
2023-02-14T01:08:05.269Z,19.88
2023-02-14T01:10:32.628Z,22.33
2023-02-14T01:12:59.875Z,19.08
2023-02-14T01:15:26.884Z,20.25
2023-02-14T01:17:53.871Z,17.50
2023-02-14T01:20:20.810Z,17.40
2023-02-14T01:22:47.859Z,24.83
2023-02-14T01:25:14.801Z,21.55
2023-02-14T01:27:42.057Z,20.00
2023-02-14T01:30:10.011Z,23.50
2023-02-14T01:32:37.235Z,23.83
2023-02-14T01:35:04.880Z,21.60
2023-02-14T01:37:31.927Z,20.60
2023-02-14T01:39:59.377Z,20.08
2023-02-14T01:42:26.893Z,21.55
2023-02-14T01:45:04.435Z,18.88
2023-02-14T01:47:34.963Z,19.73
2023-02-14T01:50:10.469Z,22.58
2023-02-14T01:52:51.544Z,18.52
2023-02-14T01:55:24.087Z,19.25
2023-02-14T01:58:00.067Z,19.30
2023-02-14T02:00:45.910Z,26.90
2023-02-14T02:05:47.371Z,23.33
2023-02-14T02:08:14.985Z,25.30
2023-02-14T02:10:41.928Z,23.27
2023-02-14T02:13:14.914Z,20.92
2023-02-14T02:16:07.862Z,26.70
2023-02-14T02:19:12.480Z,26.70
2023-02-14T02:22:01.149Z,20.92
2023-02-14T02:24:36.184Z,19.70
2023-02-14T02:27:19.421Z,25.55
2023-02-14T02:30:31.080Z,21.65
2023-02-14T02:33:12.992Z,16.77
2023-02-14T02:35:45.925Z,21.05
2023-02-14T02:38:18.976Z,16.30
2023-02-14T02:41:04.239Z,17.58
2023-02-14T02:43:37.228Z,19.55
2023-02-14T02:46:47.602Z,19.60
2023-02-14T02:49:52.721Z,16.40
2023-02-14T02:53:04.190Z,15.43
2023-02-14T02:55:56.964Z,15.00
2023-02-14T02:58:29.534Z,13.35
2023-02-14T03:00:58.529Z,11.35
2023-02-14T03:03:46.516Z,14.52
2023-02-14T03:06:13.562Z,23.13
2023-02-14T03:08:40.560Z,16.27
2023-02-14T03:11:07.760Z,17.40
2023-02-14T03:13:40.648Z,15.48
2023-02-14T03:16:27.303Z,15.13
2023-02-14T03:19:03.250Z,14.70
2023-02-14T03:21:39.570Z,15.90
2023-02-14T03:24:25.712Z,16.83
2023-02-14T03:27:15.191Z,17.52
2023-02-14T03:29:45.315Z,16.00
2023-02-14T03:32:46.882Z,11.85
2023-02-14T03:35:32.746Z,14.30
2023-02-14T03:40:42.609Z,15.05
2023-02-14T03:43:35.874Z,13.25
2023-02-14T03:46:35.729Z,21.20
2023-02-14T03:49:09.391Z,14.18
2023-02-14T03:51:37.815Z,14.52
2023-02-14T03:54:10.652Z,13.77
2023-02-14T03:56:41.139Z,17.95
2023-02-14T03:59:18.512Z,13.75
2023-02-14T04:01:54.814Z,16.50
2023-02-14T04:04:26.175Z,13.48
2023-02-14T04:06:53.679Z,17.17
2023-02-14T04:09:20.724Z,15.95
2023-02-14T04:11:50.599Z,21.52
2023-02-14T04:14:17.944Z,17.70
2023-02-14T04:17:03.577Z,19.67
2023-02-14T04:19:30.628Z,21.02
2023-02-14T04:21:57.723Z,19.40
2023-02-14T04:24:24.766Z,16.52
2023-02-14T04:26:54.529Z,19.55
2023-02-14T04:29:21.624Z,18.65
2023-02-14T04:31:48.905Z,15.02
2023-02-14T04:34:16.032Z,17.48
2023-02-14T04:36:43.018Z,21.67
2023-02-14T04:39:10.011Z,17.77
2023-02-14T04:41:37.061Z,15.00
2023-02-14T04:44:04.213Z,15.25
2023-02-14T04:46:31.195Z,16.42
2023-02-14T04:48:58.201Z,17.15
2023-02-14T04:51:27.537Z,16.88
2023-02-14T04:53:54.657Z,13.70
2023-02-14T04:56:21.798Z,17.75
2023-02-14T04:58:48.741Z,23.65
2023-02-14T05:01:16.051Z,18.65
2023-02-14T05:03:43.045Z,16.35
2023-02-14T05:06:10.083Z,16.92
2023-02-14T05:08:37.178Z,18.27
2023-02-14T05:11:04.240Z,19.10
2023-02-14T05:13:32.294Z,18.75
2023-02-14T05:15:59.984Z,15.60
2023-02-14T05:18:27.473Z,22.00
2023-02-14T05:20:55.330Z,17.35
2023-02-14T05:23:22.993Z,16.20
2023-02-14T05:25:51.981Z,16.48
2023-02-14T05:28:19.952Z,13.38
2023-02-14T05:30:47.485Z,15.70
2023-02-14T05:33:14.486Z,16.27
2023-02-14T05:35:41.500Z,13.50
2023-02-14T05:38:08.686Z,10.18
2023-02-14T05:40:35.796Z,14.82
2023-02-14T05:43:06.020Z,12.38
2023-02-14T05:45:33.220Z,10.27
2023-02-14T05:48:00.829Z,14.68
2023-02-14T05:50:29.006Z,14.38
2023-02-14T05:52:56.367Z,20.05
2023-02-14T05:55:24.841Z,18.58
2023-02-14T05:57:51.800Z,14.93
2023-02-14T06:00:19.551Z,14.00
2023-02-14T06:02:46.596Z,21.08
2023-02-14T06:05:15.075Z,12.95
2023-02-14T06:07:43.772Z,24.80
2023-02-14T06:10:11.012Z,15.20
2023-02-14T06:12:38.108Z,27.08
2023-02-14T06:15:05.462Z,28.98
2023-02-14T06:17:33.545Z,20.17
2023-02-14T06:20:01.052Z,15.20
2023-02-14T06:22:30.530Z,20.10
2023-02-14T06:24:57.746Z,17.30
2023-02-14T06:27:24.744Z,24.17
2023-02-14T06:29:51.822Z,24.02
2023-02-14T06:32:19.165Z,20.75
2023-02-14T06:34:46.188Z,21.15
2023-02-14T06:37:13.283Z,23.90
2023-02-14T06:39:40.438Z,15.65
2023-02-14T06:42:07.839Z,17.15
2023-02-14T06:44:34.786Z,18.92
2023-02-14T06:47:06.795Z,18.83
2023-02-14T06:49:33.794Z,22.30
2023-02-14T06:52:00.785Z,16.95
2023-02-14T06:54:27.884Z,23.65
2023-02-14T06:56:55.032Z,21.17
2023-02-14T06:59:22.652Z,27.33
2023-02-14T07:01:49.994Z,17.40
2023-02-14T07:04:17.964Z,27.17
2023-02-14T07:06:47.830Z,26.17
2023-02-14T07:09:18.452Z,24.70
2023-02-14T07:11:46.709Z,22.30
2023-02-14T07:14:14.293Z,27.23
2023-02-14T07:16:41.338Z,17.73
2023-02-14T07:19:09.508Z,20.55
2023-02-14T07:21:36.711Z,26.42
2023-02-14T07:24:04.478Z,29.23
2023-02-14T07:26:31.472Z,26.13
2023-02-14T07:28:58.644Z,16.27
2023-02-14T07:31:26.052Z,18.48
2023-02-14T07:33:53.424Z,26.83
2023-02-14T07:36:20.471Z,25.75
2023-02-14T07:38:47.478Z,24.92
2023-02-14T07:41:14.734Z,29.05
2023-02-14T07:43:41.712Z,23.77
2023-02-14T07:46:08.752Z,23.35
2023-02-14T07:48:36.075Z,19.45
2023-02-14T07:51:05.822Z,24.33
2023-02-14T07:53:33.027Z,26.15
2023-02-14T07:56:00.015Z,23.02
2023-02-14T07:58:27.024Z,26.08
2023-02-14T08:00:54.932Z,36.22
2023-02-14T08:03:21.924Z,33.83
2023-02-14T08:05:57.479Z,30.65
2023-02-14T08:08:29.768Z,28.02
2023-02-14T08:10:57.864Z,27.92
2023-02-14T08:13:25.010Z,35.90
2023-02-14T08:16:12.810Z,36.63
2023-02-14T08:18:41.678Z,30.08
2023-02-14T08:21:11.505Z,34.05
2023-02-14T08:23:39.270Z,37.85
2023-02-14T08:26:06.536Z,27.10
2023-02-14T08:28:35.134Z,36.95
2023-02-14T08:31:04.380Z,31.75
2023-02-14T08:33:31.635Z,40.00
2023-02-14T08:35:58.668Z,46.80
2023-02-14T08:38:25.733Z,34.47
2023-02-14T08:40:52.930Z,41.83
2023-02-14T08:43:20.334Z,41.88
2023-02-14T08:45:48.658Z,41.80
2023-02-14T08:48:15.654Z,38.00
2023-02-14T08:50:42.904Z,33.75
2023-02-14T08:53:11.953Z,36.38
2023-02-14T08:55:39.652Z,36.03
2023-02-14T08:58:07.631Z,40.03
2023-02-14T09:00:35.091Z,38.58
2023-02-14T09:03:02.387Z,36.53
2023-02-14T09:05:30.662Z,37.15
2023-02-14T09:07:57.756Z,37.00
2023-02-14T09:10:25.853Z,37.85
2023-02-14T09:12:52.932Z,39.33
2023-02-14T09:15:20.147Z,29.80
2023-02-14T09:17:47.536Z,31.30
2023-02-14T09:20:15.934Z,37.15
2023-02-14T09:22:43.636Z,36.60
2023-02-14T09:25:11.508Z,45.72
2023-02-14T09:27:39.206Z,36.95
2023-02-14T09:30:09.604Z,36.97
2023-02-14T09:32:36.674Z,37.05
2023-02-14T09:35:08.492Z,37.28
2023-02-14T09:37:54.329Z,39.45
2023-02-14T09:43:10.073Z,38.95
2023-02-14T09:45:38.562Z,41.97
2023-02-14T09:48:28.111Z,39.63
2023-02-14T09:51:00.248Z,35.85
2023-02-14T09:53:36.296Z,47.20
2023-02-14T09:56:19.651Z,46.17
2023-02-14T09:59:02.133Z,40.70
2023-02-14T10:01:54.755Z,42.00
2023-02-14T10:04:42.770Z,37.03
2023-02-14T10:07:15.804Z,36.80
2023-02-14T10:13:48.870Z,40.55
2023-02-14T10:16:27.108Z,39.60
2023-02-14T10:19:12.401Z,41.15
2023-02-14T10:21:48.716Z,34.55
2023-02-14T10:24:30.202Z,47.28
2023-02-14T10:29:45.495Z,41.60
2023-02-14T10:32:18.858Z,40.03
2023-02-14T10:34:46.112Z,33.05
2023-02-14T10:37:30.911Z,32.90
2023-02-14T10:40:09.823Z,41.90
2023-02-14T10:43:18.361Z,40.40
2023-02-14T10:45:54.384Z,48.35
2023-02-14T10:48:36.705Z,44.28
2023-02-14T10:51:17.473Z,51.17
2023-02-14T10:53:59.324Z,37.25
2023-02-14T10:57:07.321Z,44.63
2023-02-14T10:59:38.873Z,39.38
2023-02-14T11:02:11.093Z,39.97
2023-02-14T11:04:38.604Z,72.70
2023-02-14T11:07:15.733Z,63.72
2023-02-14T11:09:42.936Z,41.90
2023-02-14T11:12:10.497Z,68.95
2023-02-14T11:14:39.689Z,271.08
2023-02-14T11:17:30.012Z,86.30
2023-02-14T11:20:23.094Z,45.67
2023-02-14T11:22:50.700Z,41.10
2023-02-14T11:25:31.927Z,42.75
2023-02-14T11:28:08.545Z,42.03
2023-02-14T11:30:46.681Z,43.20
2023-02-14T11:33:31.007Z,42.63
2023-02-14T11:35:58.668Z,46.92
2023-02-14T11:38:27.917Z,47.08
2023-02-14T11:40:57.457Z,41.50
2023-02-14T11:43:33.579Z,42.03
2023-02-14T11:46:21.566Z,48.38
2023-02-14T11:48:57.885Z,45.60
2023-02-14T11:51:35.640Z,42.55
2023-02-14T11:54:05.901Z,46.35
2023-02-14T11:57:02.106Z,43.40
2023-02-14T11:59:31.946Z,39.58
2023-02-14T12:02:02.941Z,47.72
2023-02-14T12:04:45.693Z,44.70
2023-02-14T12:07:16.787Z,40.97
2023-02-14T12:09:44.503Z,47.63
2023-02-14T12:12:24.048Z,38.92
2023-02-14T12:14:51.303Z,47.15
2023-02-14T12:17:33.852Z,46.53
2023-02-14T12:20:19.698Z,52.80
2023-02-14T12:25:23.006Z,47.58
2023-02-14T12:28:03.769Z,46.55
2023-02-14T12:30:34.034Z,50.88
2023-02-14T12:33:02.923Z,49.22
2023-02-14T12:35:42.371Z,51.60
2023-02-14T12:38:18.367Z,56.13
2023-02-14T12:40:54.524Z,53.25
2023-02-14T12:44:06.841Z,54.47
2023-02-14T12:46:49.301Z,54.90
2023-02-14T12:49:36.259Z,58.20
2023-02-14T12:52:21.889Z,53.20
2023-02-14T12:55:19.869Z,57.70
2023-02-14T12:57:56.687Z,57.75
2023-02-14T13:00:50.203Z,58.38
2023-02-14T13:03:56.373Z,55.15
2023-02-14T13:06:29.512Z,64.40
2023-02-14T13:09:37.823Z,70.00
2023-02-14T13:12:13.470Z,66.30
2023-02-14T13:15:12.107Z,54.03
2023-02-14T13:17:50.878Z,61.95
2023-02-14T13:20:45.682Z,59.63
2023-02-14T13:23:19.226Z,56.65
2023-02-14T13:25:51.963Z,58.00
2023-02-14T13:28:20.341Z,51.03
2023-02-14T13:30:47.763Z,58.38
2023-02-14T13:33:27.186Z,60.22
2023-02-14T13:35:58.482Z,58.25
2023-02-14T13:38:27.298Z,54.65
2023-02-14T13:40:56.861Z,55.10
2023-02-14T13:43:50.783Z,59.63
2023-02-14T13:46:48.481Z,62.70
2023-02-14T13:49:24.380Z,55.45
2023-02-14T13:52:02.916Z,62.42
2023-02-14T13:54:49.014Z,57.72
2023-02-14T13:57:37.561Z,59.47
2023-02-14T14:00:19.483Z,59.60
2023-02-14T14:02:48.832Z,59.95
2023-02-14T14:05:47.668Z,62.05
2023-02-14T14:08:39.629Z,59.53
2023-02-14T14:11:21.375Z,57.80
2023-02-14T14:13:54.918Z,59.45
2023-02-14T14:16:26.871Z,54.78
2023-02-14T14:19:22.202Z,56.67
2023-02-14T14:22:10.849Z,58.47
2023-02-14T14:24:50.997Z,53.45
2023-02-14T14:27:19.990Z,61.85
2023-02-14T14:29:56.988Z,58.10
2023-02-14T14:32:36.403Z,56.75
2023-02-14T14:35:03.357Z,66.88
2023-02-14T14:37:51.898Z,64.00
2023-02-14T14:40:32.372Z,56.40
2023-02-14T14:43:06.678Z,62.53
2023-02-14T14:45:33.884Z,59.70
2023-02-14T14:48:09.935Z,62.05
2023-02-14T14:50:37.376Z,61.75
2023-02-14T14:53:09.623Z,56.30
2023-02-14T14:55:39.632Z,69.75
2023-02-14T14:58:27.466Z,64.28
2023-02-14T15:00:54.529Z,62.67
2023-02-14T15:03:25.556Z,61.05
2023-02-14T15:06:15.438Z,70.30
2023-02-14T15:08:42.706Z,63.05
2023-02-14T15:11:44.909Z,57.72
2023-02-14T15:14:21.273Z,63.50
2023-02-14T15:17:06.789Z,62.10
2023-02-14T15:19:44.297Z,59.25
2023-02-14T15:22:47.492Z,63.60
2023-02-14T15:25:23.655Z,55.45
2023-02-14T15:27:51.236Z,56.85
2023-02-14T15:30:26.756Z,61.47
2023-02-14T15:40:59.521Z,61.10
2023-02-14T15:43:34.081Z,58.42
2023-02-14T15:46:16.083Z,59.25
2023-02-14T15:48:44.592Z,69.80
2023-02-14T15:51:24.754Z,66.35
2023-02-14T15:54:02.797Z,64.75
2023-02-14T15:56:33.631Z,67.20
2023-02-14T15:59:05.592Z,62.60
2023-02-14T16:01:34.693Z,74.53
2023-02-14T16:04:04.283Z,67.00
2023-02-14T16:06:35.016Z,59.83
2023-02-14T16:09:05.508Z,61.22
2023-02-14T16:11:36.132Z,65.43
2023-02-14T16:14:31.590Z,56.92
2023-02-14T16:17:13.225Z,68.95
2023-02-14T16:19:45.707Z,92.40
2023-02-14T16:22:25.132Z,92.93
2023-02-14T16:24:52.095Z,80.70
2023-02-14T16:27:19.172Z,73.85
2023-02-14T16:29:46.216Z,63.10
2023-02-14T16:32:19.115Z,61.78
2023-02-14T16:34:49.496Z,69.63
2023-02-14T16:37:46.581Z,57.03
2023-02-14T16:40:15.775Z,72.93
2023-02-14T16:42:43.807Z,80.75
2023-02-14T16:45:18.369Z,74.47
2023-02-14T16:47:48.867Z,68.17
2023-02-14T16:50:16.619Z,66.88
2023-02-14T16:52:47.859Z,70.70
2023-02-14T16:55:18.076Z,74.53
2023-02-14T16:57:49.939Z,77.30
2023-02-14T17:00:18.054Z,69.80
2023-02-14T17:02:45.231Z,71.70
2023-02-14T17:05:12.323Z,72.38
2023-02-14T17:07:42.941Z,72.13
2023-02-14T17:10:19.625Z,78.63
2023-02-14T17:12:48.971Z,76.45
2023-02-14T17:15:20.372Z,71.75
2023-02-14T17:17:49.368Z,75.07
2023-02-14T17:20:19.613Z,80.95
2023-02-14T17:22:46.722Z,81.90
2023-02-14T17:25:14.389Z,80.75
2023-02-14T17:27:44.190Z,93.85
2023-02-14T17:30:12.772Z,92.40
2023-02-14T17:32:39.822Z,77.88
2023-02-14T17:35:09.170Z,82.57
2023-02-14T17:37:37.352Z,82.78
2023-02-14T17:40:06.079Z,87.13
2023-02-14T17:42:34.410Z,87.78
2023-02-14T17:45:02.067Z,88.40
2023-02-14T17:47:29.890Z,131.50
2023-02-14T17:49:57.443Z,100.85
2023-02-14T17:52:24.800Z,102.90
2023-02-14T17:54:51.996Z,104.22
2023-02-14T17:57:19.040Z,94.63
2023-02-14T17:59:47.015Z,95.00
2023-02-14T18:02:14.058Z,81.78
2023-02-14T18:04:41.155Z,87.18
2023-02-14T21:15:40.256Z,64.05
2023-02-14T21:18:07.770Z,62.30
2023-02-14T21:20:35.655Z,73.72
2023-02-14T21:23:04.505Z,79.38
2023-02-14T21:25:32.572Z,70.55
2023-02-14T21:27:59.514Z,62.03
2023-02-14T21:30:31.028Z,59.30
2023-02-14T21:33:00.473Z,65.65
2023-02-14T21:35:27.463Z,55.63
2023-02-14T21:37:54.460Z,60.47
2023-02-14T21:40:22.654Z,56.35
2023-02-14T21:42:50.704Z,50.00
2023-02-14T21:45:41.821Z,54.03
2023-02-14T21:48:27.348Z,53.55
2023-02-14T21:50:54.344Z,52.55
2023-02-14T21:53:21.389Z,48.28
2023-02-14T21:55:48.539Z,50.45
2023-02-14T21:58:15.583Z,38.97
2023-02-14T22:00:46.731Z,46.10
2023-02-14T22:03:13.782Z,51.63
2023-02-14T22:05:40.715Z,41.20
2023-02-14T22:08:07.913Z,44.08
2023-02-14T22:10:34.862Z,46.78
2023-02-14T22:13:02.779Z,53.92
2023-02-14T22:15:29.722Z,48.58
2023-02-14T22:17:56.769Z,51.47
2023-02-14T22:20:23.814Z,56.53
2023-02-14T22:22:50.808Z,49.92
2023-02-14T22:25:18.009Z,47.33
2023-02-14T22:27:45.001Z,45.47
2023-02-14T22:30:12.335Z,50.92
2023-02-14T22:32:39.450Z,45.17
2023-02-14T22:35:07.012Z,52.40
2023-02-14T22:37:34.084Z,46.85
2023-02-14T22:40:01.005Z,43.63
2023-02-14T22:42:28.124Z,38.28
2023-02-14T22:44:55.196Z,36.38
2023-02-14T22:47:22.140Z,31.73
2023-02-14T22:49:49.909Z,35.08
2023-02-14T22:52:16.959Z,33.53
2023-02-14T22:54:44.051Z,41.72
2023-02-14T22:57:11.044Z,37.83
2023-02-14T22:59:40.170Z,33.90
2023-02-14T23:02:07.343Z,37.10
2023-02-14T23:04:34.334Z,40.42
2023-02-14T23:07:01.379Z,42.58
2023-02-14T23:09:29.090Z,49.90
2023-02-14T23:11:56.068Z,40.50
2023-02-14T23:18:18.986Z,38.67
2023-02-14T23:21:04.794Z,42.17
2023-02-14T23:26:00.677Z,38.33
2023-02-14T23:28:28.854Z,35.25
2023-02-14T23:31:01.409Z,32.35
2023-02-14T23:33:28.482Z,36.30
2023-02-14T23:35:55.474Z,31.05
2023-02-14T23:38:22.671Z,36.85
2023-02-14T23:41:08.475Z,27.92
2023-02-14T23:46:02.792Z,35.00
2023-02-14T23:48:31.038Z,31.38
2023-02-14T23:51:01.279Z,28.65
2023-02-14T23:54:05.829Z,31.48
2023-02-14T23:56:33.592Z,30.40
2023-02-14T23:59:00.587Z,24.80
